createdAt,value
2023-05-19T00:02:06.141Z,72.80
2023-05-19T00:04:33.894Z,73.10
2023-05-19T00:07:03.637Z,72.60
2023-05-19T00:09:31.472Z,72.70
2023-05-19T00:11:59.045Z,73.30
2023-05-19T00:14:26.560Z,72.90
2023-05-19T00:16:56.205Z,72.10
2023-05-19T00:19:25.201Z,72.40
2023-05-19T00:21:52.461Z,72.40
2023-05-19T00:24:19.652Z,72.80
2023-05-19T00:26:46.744Z,71.20
2023-05-19T00:29:18.420Z,71.90
2023-05-19T00:31:46.413Z,72.60
2023-05-19T00:34:13.692Z,73.20
2023-05-19T00:36:40.935Z,72.60
2023-05-19T00:39:08.093Z,73.10
2023-05-19T00:41:35.879Z,73.70
2023-05-19T00:44:02.959Z,73.30
2023-05-19T00:46:30.817Z,73.30
2023-05-19T00:48:58.041Z,74.10
2023-05-19T00:51:28.251Z,74.40
2023-05-19T00:53:56.670Z,73.40
2023-05-19T00:56:23.908Z,73.80
2023-05-19T00:58:55.163Z,73.90
2023-05-19T01:01:23.463Z,74.90
2023-05-19T01:03:51.458Z,75.30
2023-05-19T01:06:22.304Z,74.90
2023-05-19T01:08:51.584Z,74.90
2023-05-19T01:11:19.055Z,74.30
2023-05-19T01:13:46.238Z,74.80
2023-05-19T01:16:22.701Z,75.10
2023-05-19T01:19:16.164Z,76.10
2023-05-19T01:22:06.998Z,75.90
2023-05-19T01:24:55.275Z,76.40
2023-05-19T01:28:08.456Z,76.10
2023-05-19T01:30:55.692Z,74.80
2023-05-19T01:33:24.697Z,75.50
2023-05-19T01:35:55.723Z,76.40
2023-05-19T01:38:28.293Z,76.90
2023-05-19T01:40:58.078Z,77.20
2023-05-19T01:43:27.418Z,76.40
2023-05-19T01:45:56.106Z,76.70
2023-05-19T01:48:23.908Z,76.90
2023-05-19T01:50:51.808Z,77.30
2023-05-19T01:53:19.043Z,78.10
2023-05-19T01:55:51.367Z,78.50
2023-05-19T01:58:47.058Z,78.80
2023-05-19T02:01:38.378Z,79.10
2023-05-19T02:04:25.451Z,79.10
2023-05-19T02:08:06.590Z,78.80
2023-05-19T02:10:40.457Z,79.70
2023-05-19T02:13:14.657Z,79.00
2023-05-19T02:15:43.855Z,79.00
2023-05-19T02:18:12.307Z,77.80
2023-05-19T02:20:40.820Z,77.70
2023-05-19T02:23:08.312Z,77.30
2023-05-19T02:25:35.473Z,78.60
2023-05-19T02:28:02.770Z,79.00
2023-05-19T02:30:31.954Z,79.50
2023-05-19T02:33:00.855Z,79.70
2023-05-19T02:35:28.170Z,79.60
2023-05-19T02:37:55.337Z,80.00
2023-05-19T02:40:23.010Z,79.70
2023-05-19T02:42:50.364Z,79.70
2023-05-19T02:45:17.874Z,79.90
2023-05-19T02:47:45.059Z,79.40
2023-05-19T02:50:12.250Z,79.60
2023-05-19T02:52:39.561Z,76.20
2023-05-19T02:55:07.254Z,81.20
2023-05-19T02:57:35.618Z,80.40
2023-05-19T03:00:02.860Z,80.20
2023-05-19T03:02:30.165Z,79.50
2023-05-19T03:04:57.946Z,79.20
2023-05-19T03:07:25.343Z,78.80
2023-05-19T03:09:53.086Z,80.00
2023-05-19T03:12:20.765Z,79.00
2023-05-19T03:14:48.129Z,80.70
2023-05-19T03:17:15.549Z,81.40
2023-05-19T03:19:42.726Z,80.10
2023-05-19T03:22:09.848Z,82.60
2023-05-19T03:24:36.924Z,81.00
2023-05-19T03:27:08.104Z,83.00
2023-05-19T03:29:35.533Z,82.70
2023-05-19T03:32:03.144Z,81.80
2023-05-19T03:34:32.668Z,82.30
2023-05-19T03:37:00.126Z,82.00
2023-05-19T03:39:27.423Z,82.30
2023-05-19T03:41:56.281Z,82.00
2023-05-19T03:44:23.650Z,82.00
2023-05-19T03:46:50.881Z,83.60
2023-05-19T03:49:41.024Z,81.30
2023-05-19T03:55:05.787Z,81.60
2023-05-19T04:02:28.563Z,80.60
2023-05-19T04:04:56.173Z,82.40
2023-05-19T04:07:23.786Z,81.10
2023-05-19T04:14:46.014Z,84.70
2023-05-19T04:37:00.029Z,81.10
2023-05-19T04:59:23.304Z,88.50
2023-05-19T05:09:17.950Z,98.60
2023-05-19T05:16:43.643Z,87.00
2023-05-19T05:24:12.069Z,99.90
2023-05-19T05:29:10.109Z,85.70
2023-05-19T05:54:07.073Z,85.20
2023-05-19T06:11:34.447Z,84.10
2023-05-19T06:16:49.415Z,89.40
2023-05-19T06:19:20.081Z,83.80
2023-05-19T06:36:42.294Z,82.60
2023-05-19T06:39:10.240Z,82.80
2023-05-19T06:41:37.709Z,82.30
2023-05-19T06:44:10.760Z,82.40
2023-05-19T06:46:37.942Z,82.70
2023-05-19T06:49:05.475Z,82.30
2023-05-19T06:51:37.722Z,85.80
2023-05-19T06:54:04.971Z,81.90
2023-05-19T06:56:32.313Z,81.80
2023-05-19T06:58:59.496Z,81.90
2023-05-19T07:01:32.181Z,81.80
2023-05-19T07:04:00.085Z,81.30
2023-05-19T07:06:27.500Z,81.00
2023-05-19T07:08:54.862Z,81.00
2023-05-19T07:11:22.496Z,81.00
2023-05-19T07:13:49.983Z,80.70
2023-05-19T07:16:23.359Z,83.30
2023-05-19T07:18:50.608Z,80.10
2023-05-19T07:21:17.824Z,79.70
2023-05-19T07:23:44.998Z,79.70
2023-05-19T07:26:12.277Z,79.40
2023-05-19T07:28:41.451Z,79.30
2023-05-19T07:31:09.849Z,78.40
2023-05-19T07:33:36.973Z,76.40
2023-05-19T07:36:04.567Z,73.70
2023-05-19T07:38:34.518Z,74.20
2023-05-19T07:41:02.753Z,74.00
2023-05-19T07:43:30.195Z,73.60
2023-05-19T07:45:57.468Z,72.30
2023-05-19T07:48:25.941Z,72.20
2023-05-19T07:50:53.544Z,72.10
2023-05-19T07:53:22.683Z,71.60
2023-05-19T07:55:50.386Z,71.30
2023-05-19T07:58:17.738Z,71.30
2023-05-19T08:00:46.049Z,71.40
2023-05-19T08:03:13.849Z,71.20
2023-05-19T08:05:41.260Z,70.60
2023-05-19T08:08:08.454Z,70.20
2023-05-19T08:10:35.826Z,70.40
2023-05-19T08:13:02.952Z,69.80
2023-05-19T08:15:30.152Z,69.20
2023-05-19T08:17:57.482Z,69.00
2023-05-19T08:20:24.748Z,69.50
2023-05-19T08:22:51.921Z,69.90
2023-05-19T08:25:19.795Z,69.10
2023-05-19T08:27:46.957Z,69.70
2023-05-19T08:30:14.367Z,66.90
2023-05-19T08:32:41.780Z,67.50
2023-05-19T08:35:09.698Z,68.00
2023-05-19T08:37:38.175Z,68.00
2023-05-19T08:40:06.485Z,68.40
2023-05-19T08:42:33.944Z,67.20
2023-05-19T08:45:03.257Z,68.50
2023-05-19T08:47:32.114Z,67.90
2023-05-19T08:50:09.990Z,67.80
2023-05-19T08:53:04.751Z,67.40
2023-05-19T08:55:46.997Z,67.80
2023-05-19T08:58:16.925Z,67.00
2023-05-19T09:00:45.167Z,65.10
2023-05-19T09:05:44.627Z,64.70
2023-05-19T09:08:11.939Z,65.80
2023-05-19T09:10:39.272Z,65.20
2023-05-19T09:13:06.939Z,64.60
2023-05-19T09:15:36.917Z,64.90
2023-05-19T09:18:14.194Z,64.60
2023-05-19T09:20:46.252Z,64.50
2023-05-19T09:23:18.273Z,64.70
2023-05-19T09:25:53.525Z,64.90
2023-05-19T09:28:31.066Z,63.30
2023-05-19T09:31:07.384Z,63.70
2023-05-19T09:33:45.603Z,64.50
2023-05-19T09:36:13.883Z,64.70
2023-05-19T09:38:41.562Z,64.20
2023-05-19T09:41:09.810Z,63.80
2023-05-19T09:43:37.218Z,64.00
2023-05-19T09:46:11.841Z,64.20
2023-05-19T09:48:40.037Z,62.90
2023-05-19T09:51:10.985Z,62.60
2023-05-19T09:53:39.158Z,62.50
2023-05-19T09:56:08.757Z,61.70
2023-05-19T09:58:36.552Z,60.70
2023-05-19T10:01:05.713Z,61.90
2023-05-19T10:03:34.486Z,61.90
2023-05-19T10:06:04.574Z,61.40
2023-05-19T10:08:34.260Z,60.60
2023-05-19T10:11:03.201Z,60.80
2023-05-19T10:13:32.150Z,60.00
2023-05-19T10:16:00.469Z,60.40
2023-05-19T10:18:29.834Z,57.60
2023-05-19T10:20:59.046Z,58.40
2023-05-19T10:23:27.045Z,58.90
2023-05-19T10:25:59.188Z,58.80
2023-05-19T10:28:38.697Z,59.40
2023-05-19T10:31:11.498Z,59.80
2023-05-19T10:34:05.981Z,60.40
2023-05-19T10:36:50.450Z,59.70
2023-05-19T10:39:25.146Z,59.30
2023-05-19T10:42:15.074Z,57.40
2023-05-19T10:45:15.331Z,58.00
2023-05-19T10:47:43.751Z,58.90
2023-05-19T10:50:11.650Z,59.60
2023-05-19T10:52:40.865Z,58.50
2023-05-19T10:55:10.307Z,58.90
2023-05-19T10:57:37.798Z,60.10
2023-05-19T11:00:27.551Z,59.90
2023-05-19T11:02:57.962Z,59.90
2023-05-19T11:05:31.603Z,60.20
2023-05-19T11:08:04.635Z,59.00
2023-05-19T11:10:32.499Z,59.30
2023-05-19T11:13:00.334Z,58.70
2023-05-19T11:15:28.491Z,58.40
2023-05-19T11:17:56.037Z,58.80
2023-05-19T11:20:28.786Z,59.10
2023-05-19T11:23:05.942Z,60.30
2023-05-19T11:25:45.894Z,60.30
2023-05-19T11:28:17.356Z,58.80
2023-05-19T11:30:50.631Z,59.00
2023-05-19T11:33:20.082Z,57.30
2023-05-19T11:35:51.227Z,57.60
2023-05-19T11:38:20.746Z,57.50
2023-05-19T11:40:52.526Z,59.20
2023-05-19T11:43:19.795Z,59.30
2023-05-19T11:45:47.445Z,57.80
2023-05-19T11:48:18.399Z,56.30
2023-05-19T11:50:46.774Z,57.20
2023-05-19T11:53:15.458Z,57.00
2023-05-19T11:55:46.354Z,57.20
2023-05-19T11:58:13.805Z,58.80
2023-05-19T12:00:46.061Z,58.00
2023-05-19T12:03:13.585Z,58.10
2023-05-19T12:05:46.054Z,57.30
2023-05-19T12:08:14.758Z,56.80
2023-05-19T12:10:41.970Z,56.30
2023-05-19T12:13:10.330Z,55.80
2023-05-19T12:15:39.030Z,56.60
2023-05-19T12:18:06.902Z,57.40
2023-05-19T12:20:37.876Z,58.20
2023-05-19T12:23:05.800Z,58.10
2023-05-19T12:28:05.210Z,57.10
2023-05-19T12:30:34.824Z,57.80
2023-05-19T12:33:03.321Z,57.60
2023-05-19T12:35:33.910Z,57.60
2023-05-19T12:38:06.292Z,58.00
2023-05-19T12:40:37.774Z,56.80
2023-05-19T12:43:06.823Z,56.50
2023-05-19T12:45:38.831Z,57.30
2023-05-19T12:48:12.157Z,58.70
2023-05-19T12:50:39.699Z,57.70
2023-05-19T12:53:11.757Z,57.50
2023-05-19T12:55:44.923Z,57.10
2023-05-19T12:58:12.987Z,53.80
2023-05-19T13:00:47.224Z,55.00
2023-05-19T13:03:22.236Z,55.10
2023-05-19T13:05:51.372Z,54.90
2023-05-19T13:08:24.116Z,54.40
2023-05-19T13:10:51.617Z,53.90
2023-05-19T13:13:19.398Z,55.00
2023-05-19T13:15:50.768Z,54.30
2023-05-19T13:18:18.593Z,53.40
2023-05-19T13:20:47.413Z,51.50
2023-05-19T13:23:14.974Z,51.80
2023-05-19T13:25:43.228Z,52.20
2023-05-19T13:28:11.030Z,52.10
2023-05-19T13:30:41.700Z,51.30
2023-05-19T13:33:09.205Z,51.40
2023-05-19T13:35:39.489Z,51.40
2023-05-19T13:38:11.433Z,52.00
2023-05-19T13:40:39.812Z,52.00
2023-05-19T13:43:07.908Z,52.70
2023-05-19T13:45:35.130Z,53.20
2023-05-19T13:48:02.781Z,52.50
2023-05-19T13:50:30.094Z,51.90
2023-05-19T13:52:57.224Z,52.40
2023-05-19T13:55:27.263Z,51.80
2023-05-19T13:57:54.572Z,51.40
2023-05-19T14:00:21.850Z,51.20
2023-05-19T14:02:49.098Z,49.80
2023-05-19T14:05:16.396Z,50.00
2023-05-19T14:07:44.585Z,50.70
2023-05-19T14:10:12.058Z,50.50
2023-05-19T14:12:49.487Z,49.70
2023-05-19T14:15:26.869Z,49.00
2023-05-19T14:17:54.151Z,49.70
2023-05-19T14:20:21.364Z,53.80
2023-05-19T14:22:48.481Z,49.40
2023-05-19T14:25:15.744Z,49.60
2023-05-19T14:27:42.881Z,50.00
2023-05-19T14:30:10.567Z,51.00
2023-05-19T14:32:37.743Z,50.50
2023-05-19T14:35:06.053Z,50.40
2023-05-19T14:37:33.356Z,49.20
2023-05-19T14:40:00.716Z,49.70
2023-05-19T14:42:27.792Z,50.10
2023-05-19T14:44:54.913Z,50.40
2023-05-19T14:47:22.071Z,51.00
2023-05-19T14:49:49.225Z,51.00
2023-05-19T14:52:16.372Z,50.70
2023-05-19T14:54:43.580Z,51.20
2023-05-19T14:57:10.737Z,51.70
2023-05-19T14:59:38.470Z,50.20
2023-05-19T15:02:06.125Z,50.30
2023-05-19T15:04:33.285Z,50.20
2023-05-19T15:09:30.661Z,48.80
2023-05-19T15:11:58.099Z,48.10
2023-05-19T15:14:26.210Z,49.10
2023-05-19T15:16:54.960Z,48.20
2023-05-19T15:19:22.255Z,47.50
2023-05-19T15:21:50.722Z,47.40
2023-05-19T15:24:18.035Z,48.00
2023-05-19T15:26:45.956Z,48.40
2023-05-19T15:29:13.181Z,48.50
2023-05-19T15:31:40.480Z,49.00
2023-05-19T15:34:07.644Z,49.80
2023-05-19T15:36:34.781Z,48.90
2023-05-19T15:39:03.618Z,49.40
2023-05-19T15:41:30.782Z,49.70
2023-05-19T15:44:00.207Z,50.40
2023-05-19T15:46:27.941Z,51.30
2023-05-19T15:48:55.575Z,51.40
2023-05-19T15:51:23.817Z,51.40
2023-05-19T15:53:50.916Z,51.90
2023-05-19T15:56:19.437Z,50.60
2023-05-19T15:58:46.592Z,51.10
2023-05-19T16:01:15.634Z,51.40
2023-05-19T16:03:43.834Z,51.90
2023-05-19T16:06:11.197Z,51.80
2023-05-19T16:08:38.394Z,51.30
2023-05-19T16:11:06.066Z,51.20
2023-05-19T16:13:34.032Z,51.40
2023-05-19T16:16:01.690Z,51.60
2023-05-19T16:18:29.360Z,51.60
2023-05-19T16:20:57.004Z,52.00
2023-05-19T16:23:24.863Z,52.50
2023-05-19T16:25:52.359Z,52.30
2023-05-19T16:28:19.553Z,52.50
2023-05-19T16:30:46.735Z,52.40
2023-05-19T16:33:13.933Z,53.00
2023-05-19T16:35:41.191Z,53.70
2023-05-19T16:38:08.478Z,56.80
2023-05-19T16:40:35.820Z,53.40
2023-05-19T16:43:03.248Z,53.20
2023-05-19T16:45:30.360Z,53.60
2023-05-19T16:47:57.656Z,53.50
2023-05-19T16:50:24.958Z,53.90
2023-05-19T16:52:52.145Z,53.30
2023-05-19T16:55:20.203Z,53.70
2023-05-19T16:57:47.790Z,53.50
2023-05-19T17:00:15.914Z,53.50
2023-05-19T17:02:43.188Z,53.90
2023-05-19T17:05:10.546Z,53.00
2023-05-19T17:07:37.686Z,53.20
2023-05-19T17:10:05.578Z,53.30
2023-05-19T17:12:32.709Z,53.40
2023-05-19T17:14:59.881Z,53.30
2023-05-19T17:17:27.089Z,53.20
2023-05-19T17:19:54.255Z,53.30
2023-05-19T17:22:21.443Z,53.40
2023-05-19T17:24:48.515Z,53.80
2023-05-19T17:27:15.668Z,54.00
2023-05-19T17:29:42.908Z,53.70
2023-05-19T17:32:10.217Z,54.00
2023-05-19T17:34:37.387Z,54.20
2023-05-19T17:37:04.817Z,54.40
2023-05-19T17:39:32.117Z,53.80
2023-05-19T17:41:59.284Z,54.20
2023-05-19T17:44:26.403Z,54.40
2023-05-19T17:46:53.649Z,54.50
2023-05-19T17:49:23.039Z,54.70
2023-05-19T17:51:50.554Z,54.80
2023-05-19T17:54:18.108Z,54.80
2023-05-19T17:56:45.937Z,55.10
2023-05-19T17:59:13.408Z,55.40
2023-05-19T18:01:41.030Z,55.40
2023-05-19T18:04:08.950Z,55.70
2023-05-19T18:06:44.137Z,56.00
2023-05-19T18:09:14.146Z,56.20
2023-05-19T18:11:41.418Z,56.40
2023-05-19T18:14:08.601Z,57.00
2023-05-19T18:16:35.977Z,57.30
2023-05-19T18:19:03.684Z,57.60
2023-05-19T18:21:31.462Z,58.00
2023-05-19T18:24:00.567Z,58.20
2023-05-19T18:26:27.759Z,59.50
2023-05-19T18:28:54.858Z,59.00
2023-05-19T18:31:21.998Z,59.20
2023-05-19T18:33:49.577Z,59.20
2023-05-19T18:36:16.903Z,59.70
2023-05-19T18:38:44.150Z,60.20
2023-05-19T18:41:11.293Z,60.00
2023-05-19T18:43:39.107Z,60.40
2023-05-19T18:46:06.786Z,60.70
2023-05-19T18:48:34.026Z,60.80
2023-05-19T18:51:03.481Z,60.70
2023-05-19T18:53:36.887Z,61.10
2023-05-19T18:56:04.654Z,61.80
2023-05-19T18:58:32.292Z,62.10
2023-05-19T19:00:59.530Z,62.80
2023-05-19T19:03:26.782Z,63.00
2023-05-19T19:05:58.078Z,63.40
2023-05-19T19:08:25.704Z,64.00
2023-05-19T19:10:53.642Z,64.90
2023-05-19T19:13:21.161Z,64.00
2023-05-19T19:15:48.268Z,64.50
2023-05-19T19:18:15.912Z,64.70
2023-05-19T19:20:43.054Z,64.90
2023-05-19T19:23:10.299Z,65.30
2023-05-19T19:25:37.561Z,65.50
2023-05-19T19:28:04.754Z,67.00
2023-05-19T19:30:32.153Z,66.40
2023-05-19T19:33:00.238Z,66.80
2023-05-19T19:35:27.485Z,66.90
2023-05-19T19:37:54.673Z,67.20
2023-05-19T19:40:21.837Z,67.30
2023-05-19T19:42:49.014Z,67.90
2023-05-19T19:45:16.412Z,68.30
2023-05-19T19:47:43.662Z,68.70
2023-05-19T19:50:11.540Z,68.80
2023-05-19T19:52:38.951Z,69.20
2023-05-19T19:55:06.837Z,69.20
2023-05-19T19:57:34.295Z,69.60
2023-05-19T20:00:08.388Z,70.10
2023-05-19T20:02:45.460Z,70.30
2023-05-19T20:05:22.813Z,70.40
2023-05-19T20:07:49.937Z,70.60
2023-05-19T20:10:17.591Z,70.80
2023-05-19T20:12:44.821Z,71.90
2023-05-19T20:15:12.132Z,71.60
2023-05-19T20:17:39.369Z,72.00
2023-05-19T20:20:09.933Z,72.10
2023-05-19T20:22:37.280Z,72.70
2023-05-19T20:25:05.067Z,72.90
2023-05-19T20:27:32.325Z,72.40
2023-05-19T20:29:59.489Z,72.30
2023-05-19T20:32:26.819Z,72.80
2023-05-19T20:34:54.027Z,73.20
2023-05-19T20:37:22.249Z,73.80
2023-05-19T20:39:49.561Z,73.50
2023-05-19T20:42:16.787Z,73.30
2023-05-19T20:44:43.989Z,73.60
2023-05-19T20:47:11.604Z,73.60
2023-05-19T20:49:38.846Z,73.80
2023-05-19T20:52:06.366Z,73.80
2023-05-19T20:54:33.657Z,73.90
2023-05-19T20:57:01.264Z,74.70
2023-05-19T20:59:28.414Z,74.00
2023-05-19T21:01:55.497Z,74.10
2023-05-19T21:04:22.702Z,74.00
2023-05-19T21:06:50.055Z,74.20
2023-05-19T21:09:17.218Z,74.90
2023-05-19T21:11:45.114Z,74.50
2023-05-19T21:14:12.270Z,74.10
2023-05-19T21:16:40.036Z,74.40
2023-05-19T21:19:07.198Z,74.60
2023-05-19T21:21:34.498Z,75.00
2023-05-19T21:24:01.621Z,74.70
2023-05-19T21:26:28.814Z,74.70
2023-05-19T21:28:55.962Z,75.20
2023-05-19T21:31:23.088Z,75.30
2023-05-19T21:33:50.422Z,75.40
2023-05-19T21:36:18.325Z,79.50
2023-05-19T21:38:45.513Z,75.50
2023-05-19T21:41:12.662Z,75.70
2023-05-19T21:43:41.341Z,75.90
2023-05-19T21:46:08.714Z,76.10
2023-05-19T21:48:35.900Z,76.40
2023-05-19T21:51:03.075Z,77.00
2023-05-19T21:53:31.492Z,76.80
2023-05-19T21:55:59.314Z,76.90
2023-05-19T21:58:26.585Z,76.70
2023-05-19T22:00:54.564Z,77.10
2023-05-19T22:03:22.098Z,77.40
2023-05-19T22:05:54.853Z,78.70
2023-05-19T22:08:22.666Z,77.90
2023-05-19T22:10:53.330Z,77.80
2023-05-19T22:13:21.385Z,78.00
2023-05-19T22:15:48.632Z,78.50
2023-05-19T22:18:15.785Z,78.80
2023-05-19T22:20:43.257Z,78.60
2023-05-19T22:23:10.734Z,80.90
2023-05-19T22:25:38.242Z,79.50
2023-05-19T22:28:07.872Z,79.60
2023-05-19T22:30:41.017Z,78.60
2023-05-19T22:33:12.540Z,79.00
2023-05-19T22:35:39.873Z,79.70
2023-05-19T22:38:08.857Z,80.10
2023-05-19T22:40:38.007Z,80.90
2023-05-19T22:43:05.222Z,80.20
2023-05-19T22:45:34.246Z,80.40
2023-05-19T22:48:02.229Z,80.60
2023-05-19T22:50:29.412Z,80.60
2023-05-19T22:52:56.691Z,80.70
2023-05-19T22:55:23.890Z,81.20
2023-05-19T22:57:51.374Z,80.80
2023-05-19T23:00:20.801Z,81.10
2023-05-19T23:02:48.034Z,81.00
2023-05-19T23:05:15.305Z,80.90
2023-05-19T23:07:42.417Z,82.80
2023-05-19T23:10:09.976Z,82.60
2023-05-19T23:12:37.272Z,81.70
2023-05-19T23:15:05.013Z,81.70
2023-05-19T23:17:32.211Z,82.20
2023-05-19T23:19:59.333Z,82.40
2023-05-19T23:22:27.101Z,82.80
2023-05-19T23:24:54.228Z,82.90
2023-05-19T23:27:21.355Z,83.60
2023-05-19T23:29:50.744Z,83.30
2023-05-19T23:32:17.905Z,83.60
2023-05-19T23:34:47.398Z,83.90
2023-05-19T23:37:14.699Z,84.10
2023-05-19T23:39:42.008Z,85.00
2023-05-19T23:42:09.264Z,83.80
2023-05-19T23:44:36.437Z,83.90
2023-05-19T23:47:03.665Z,84.00
2023-05-19T23:49:30.816Z,83.80
2023-05-19T23:51:57.956Z,84.80
2023-05-19T23:54:25.153Z,83.40
2023-05-19T23:56:52.467Z,83.30
2023-05-19T23:59:19.522Z,83.90
